createdAt,value
2017-11-08T00:02:18.833Z,62.03
2017-11-08T00:04:46.348Z,75.63
2017-11-08T00:07:14.636Z,55.87
2017-11-08T00:09:42.193Z,57.23
2017-11-08T00:12:10.473Z,56.30
2017-11-08T00:14:38.803Z,59.97
2017-11-08T00:17:08.170Z,48.90
2017-11-08T00:19:35.978Z,59.40
2017-11-08T00:22:18.197Z,52.43
2017-11-08T00:24:46.124Z,53.83
2017-11-08T00:27:13.645Z,58.60
2017-11-08T00:29:41.161Z,79.67
2017-11-08T00:32:08.731Z,59.77
2017-11-08T00:34:36.975Z,57.07
2017-11-08T00:37:04.523Z,135.17
2017-11-08T00:39:32.035Z,66.07
2017-11-08T00:41:59.830Z,62.23
2017-11-08T00:44:27.347Z,66.23
2017-11-08T00:46:54.875Z,60.30
2017-11-08T00:49:22.453Z,45.03
2017-11-08T00:51:51.909Z,51.67
2017-11-08T00:54:19.461Z,49.27
2017-11-08T00:56:46.994Z,55.17
2017-11-08T00:59:14.790Z,49.90
2017-11-08T01:01:42.307Z,57.90
2017-11-08T01:04:09.809Z,44.93
2017-11-08T01:06:37.352Z,56.20
2017-11-08T01:09:05.805Z,46.67
2017-11-08T01:11:33.762Z,41.57
2017-11-08T01:14:01.273Z,48.33
2017-11-08T01:16:28.783Z,48.10
2017-11-08T01:18:56.357Z,45.93
2017-11-08T01:21:23.896Z,34.30
2017-11-08T01:23:51.783Z,50.67
2017-11-08T01:26:20.068Z,43.83
2017-11-08T01:28:47.578Z,56.07
2017-11-08T01:31:15.114Z,52.93
2017-11-08T01:33:44.466Z,51.73
2017-11-08T01:36:12.016Z,37.80
2017-11-08T01:41:32.042Z,46.57
2017-11-08T01:43:59.563Z,49.43
2017-11-08T01:46:27.066Z,41.90
2017-11-08T01:48:54.602Z,37.40
2017-11-08T01:51:22.889Z,41.27
2017-11-08T01:53:50.429Z,49.27
2017-11-08T01:56:17.969Z,37.93
2017-11-08T01:58:45.762Z,55.40
2017-11-08T02:01:13.273Z,46.17
2017-11-08T02:03:40.772Z,40.70
2017-11-08T02:06:08.316Z,50.93
2017-11-08T02:08:35.830Z,44.70
2017-11-08T02:11:03.372Z,44.67
2017-11-08T02:13:30.894Z,43.67
2017-11-08T02:15:58.803Z,44.30
2017-11-08T02:18:26.318Z,37.23
2017-11-08T02:20:53.861Z,53.17
2017-11-08T02:23:21.392Z,58.77
2017-11-08T02:25:48.929Z,46.73
2017-11-08T02:28:18.025Z,46.67
2017-11-08T02:30:46.355Z,46.00
2017-11-08T02:33:15.039Z,52.60
2017-11-08T02:35:42.543Z,43.63
2017-11-08T02:38:10.053Z,0.60
2017-11-08T02:40:37.626Z,0.70
2017-11-08T02:43:11.829Z,0.70
2017-11-08T02:45:48.898Z,1.20
2017-11-08T02:48:16.403Z,0.70
2017-11-08T02:50:44.210Z,0.60
2017-11-08T02:53:11.743Z,0.80
2017-11-08T02:55:42.083Z,0.80
2017-11-08T02:58:11.377Z,2.70
2017-11-08T03:00:39.670Z,0.60
2017-11-08T03:03:11.559Z,0.70
2017-11-08T03:05:39.061Z,0.70
2017-11-08T03:08:06.606Z,6.00
2017-11-08T03:10:34.153Z,0.63
2017-11-08T03:13:01.974Z,0.70
2017-11-08T03:15:30.254Z,0.70
2017-11-08T03:17:58.522Z,0.77
2017-11-08T03:20:26.841Z,0.60
2017-11-08T03:22:54.348Z,0.60
2017-11-08T03:25:21.946Z,0.70
2017-11-08T03:27:49.482Z,0.80
2017-11-08T03:30:18.105Z,0.63
2017-11-08T03:32:45.629Z,0.80
2017-11-08T03:35:13.910Z,0.70
2017-11-08T03:37:42.214Z,0.90
2017-11-08T03:40:09.747Z,0.60
2017-11-08T03:42:38.119Z,0.83
2017-11-08T03:45:06.394Z,6.67
2017-11-08T03:47:34.194Z,0.60
2017-11-08T03:50:01.712Z,1.77
2017-11-08T03:52:29.720Z,0.60
2017-11-08T03:54:57.248Z,2.30
2017-11-08T03:57:25.530Z,1.47
2017-11-08T03:59:53.840Z,0.70
2017-11-08T04:02:21.355Z,1.23
2017-11-08T04:04:49.907Z,0.70
2017-11-08T04:07:17.422Z,0.77
2017-11-08T04:09:45.689Z,1.10
2017-11-08T04:12:13.997Z,0.97
2017-11-08T04:14:41.521Z,0.97
2017-11-08T04:17:09.202Z,0.90
2017-11-08T04:19:36.729Z,9.87
2017-11-08T04:22:04.578Z,0.70
2017-11-08T04:24:32.081Z,0.70
2017-11-08T04:27:00.357Z,0.60
2017-11-08T04:29:31.898Z,0.60
2017-11-08T04:31:59.403Z,1.30
2017-11-08T04:34:26.939Z,0.60
2017-11-08T04:36:55.335Z,0.70
2017-11-08T04:39:23.182Z,0.70
2017-11-08T04:41:50.699Z,0.80
2017-11-08T04:44:18.203Z,0.60
2017-11-08T04:46:46.497Z,0.70
2017-11-08T04:49:14.017Z,1.10
2017-11-08T04:51:41.782Z,2.20
2017-11-08T04:54:09.290Z,4.73
2017-11-08T04:56:38.069Z,5.67
2017-11-08T04:59:05.581Z,0.70
2017-11-08T05:01:33.100Z,3.67
2017-11-08T05:04:00.625Z,1.30
2017-11-08T05:06:28.152Z,3.63
2017-11-08T05:08:55.702Z,1.00
2017-11-08T05:11:23.209Z,2.60
2017-11-08T05:13:51.521Z,0.70
2017-11-08T05:16:19.034Z,0.67
2017-11-08T05:18:46.603Z,0.67
2017-11-08T05:21:14.902Z,0.67
2017-11-08T05:23:42.683Z,0.70
2017-11-08T05:26:10.201Z,0.60
2017-11-08T05:28:37.855Z,0.70
2017-11-08T05:31:05.405Z,1.23
2017-11-08T05:33:32.922Z,0.70
2017-11-08T05:36:00.458Z,2.30
2017-11-08T05:38:27.963Z,0.70
2017-11-08T05:40:55.489Z,0.77
2017-11-08T05:43:22.996Z,1.63
2017-11-08T05:45:50.837Z,0.80
2017-11-08T05:48:18.375Z,0.70
2017-11-08T05:50:45.907Z,3.10
2017-11-08T05:53:13.488Z,0.80
2017-11-08T05:55:41.014Z,0.60
2017-11-08T05:58:08.854Z,0.60
2017-11-08T06:00:36.358Z,0.60
2017-11-08T06:05:43.459Z,0.87
2017-11-08T06:08:11.098Z,3.20
2017-11-08T06:10:38.662Z,51.77
2017-11-08T06:13:06.175Z,56.57
2017-11-08T06:15:34.059Z,48.50
2017-11-08T06:18:01.603Z,59.23
2017-11-08T06:20:29.701Z,54.77
2017-11-08T06:22:57.253Z,52.17
2017-11-08T06:25:24.794Z,57.10
2017-11-08T06:27:52.357Z,65.87
2017-11-08T06:30:19.872Z,58.47
2017-11-08T06:32:47.792Z,61.07
2017-11-08T06:35:15.309Z,67.47
2017-11-08T06:37:42.835Z,72.40
2017-11-08T06:40:10.400Z,62.03
2017-11-08T06:42:37.935Z,57.27
2017-11-08T06:45:05.492Z,46.53
2017-11-08T06:47:33.003Z,66.00
2017-11-08T06:50:00.829Z,73.10
2017-11-08T06:52:28.357Z,63.10
2017-11-08T06:54:56.651Z,60.27
2017-11-08T06:57:24.212Z,65.00
2017-11-08T06:59:52.865Z,70.63
2017-11-08T07:02:20.407Z,71.93
2017-11-08T07:04:47.918Z,60.93
2017-11-08T07:07:15.429Z,2.40
2017-11-08T07:09:42.957Z,6.27
2017-11-08T07:12:10.554Z,54.80
2017-11-08T07:14:38.170Z,54.47
2017-11-08T07:17:05.693Z,63.90
2017-11-08T07:19:33.995Z,52.43
2017-11-08T07:22:01.540Z,57.37
2017-11-08T07:24:29.825Z,48.03
2017-11-08T07:26:58.127Z,50.30
2017-11-08T07:29:25.690Z,45.20
2017-11-08T07:31:53.209Z,52.17
2017-11-08T07:34:21.527Z,55.37
2017-11-08T07:36:49.091Z,51.10
2017-11-08T07:39:17.160Z,49.53
2017-11-08T07:41:44.684Z,53.17
2017-11-08T07:44:13.291Z,52.40
2017-11-08T07:46:40.812Z,49.80
2017-11-08T07:49:08.345Z,51.23
2017-11-08T07:51:35.870Z,46.33
2017-11-08T07:54:09.277Z,48.70
2017-11-08T07:56:36.829Z,49.50
2017-11-08T07:59:04.342Z,41.90
2017-11-08T08:01:31.919Z,44.37
2017-11-08T08:04:00.229Z,43.97
2017-11-08T08:06:28.777Z,47.30
2017-11-08T08:08:56.750Z,52.50
2017-11-08T08:11:25.061Z,46.87
2017-11-08T08:13:52.663Z,51.50
2017-11-08T08:16:20.202Z,51.87
2017-11-08T08:18:47.758Z,63.37
2017-11-08T08:21:16.074Z,79.77
2017-11-08T08:23:43.932Z,80.30
2017-11-08T08:26:11.446Z,61.47
2017-11-08T08:28:38.966Z,51.33
2017-11-08T08:31:06.507Z,68.60
2017-11-08T08:33:34.060Z,47.00
2017-11-08T08:36:01.623Z,47.07
2017-11-08T08:38:29.126Z,47.03
2017-11-08T08:40:57.958Z,41.83
2017-11-08T08:43:25.489Z,48.17
2017-11-08T08:45:53.010Z,53.30
2017-11-08T08:48:20.550Z,48.63
2017-11-08T08:50:49.121Z,51.93
2017-11-08T08:53:16.695Z,60.70
2017-11-08T08:55:44.253Z,51.80
2017-11-08T08:58:11.771Z,47.20
2017-11-08T09:00:39.682Z,47.90
2017-11-08T09:03:07.907Z,49.90
2017-11-08T09:05:36.744Z,43.90
2017-11-08T09:08:04.287Z,50.80
2017-11-08T09:10:31.816Z,50.13
2017-11-08T09:13:00.547Z,55.27
2017-11-08T09:15:28.056Z,50.73
2017-11-08T09:17:55.558Z,50.30
2017-11-08T09:20:26.861Z,42.57
2017-11-08T09:22:55.129Z,52.30
2017-11-08T09:25:37.170Z,51.40
2017-11-08T09:28:04.683Z,48.03
2017-11-08T09:30:33.269Z,47.30
2017-11-08T09:33:00.806Z,49.83
2017-11-08T09:35:28.333Z,48.40
2017-11-08T09:38:01.454Z,54.70
2017-11-08T09:40:30.812Z,49.27
2017-11-08T09:42:59.116Z,50.10
2017-11-08T09:45:26.624Z,52.20
2017-11-08T09:47:54.458Z,50.47
2017-11-08T09:50:21.964Z,58.47
2017-11-08T09:52:50.328Z,57.03
2017-11-08T09:55:17.885Z,61.87
2017-11-08T09:57:45.405Z,47.33
2017-11-08T10:00:12.941Z,42.87
2017-11-08T10:02:41.219Z,45.63
2017-11-08T10:05:09.275Z,43.40
2017-11-08T10:07:37.590Z,41.60
2017-11-08T10:10:05.104Z,43.33
2017-11-08T10:12:33.437Z,50.07
2017-11-08T10:15:00.979Z,46.80
2017-11-08T10:17:28.553Z,43.27
2017-11-08T10:19:58.017Z,44.87
2017-11-08T10:22:26.790Z,47.83
2017-11-08T10:24:54.332Z,51.53
2017-11-08T10:27:21.858Z,44.97
2017-11-08T10:29:49.436Z,36.90
2017-11-08T10:32:19.877Z,39.83
2017-11-08T10:34:47.435Z,38.60
2017-11-08T10:37:15.050Z,40.50
2017-11-08T10:39:42.966Z,44.43
2017-11-08T10:42:10.439Z,42.40
2017-11-08T10:44:38.723Z,41.27
2017-11-08T10:47:07.041Z,43.20
2017-11-08T10:49:36.431Z,38.50
2017-11-08T10:52:04.236Z,39.60
2017-11-08T10:54:31.781Z,41.67
2017-11-08T10:56:59.322Z,38.57
2017-11-08T10:59:27.763Z,33.20
2017-11-08T11:01:56.056Z,35.63
2017-11-08T11:04:24.676Z,48.73
2017-11-08T11:06:52.344Z,45.00
2017-11-08T11:09:22.780Z,54.73
2017-11-08T11:11:50.323Z,46.17
2017-11-08T11:14:18.621Z,47.73
2017-11-08T11:16:46.166Z,40.67
2017-11-08T11:19:13.704Z,42.90
2017-11-08T11:21:41.595Z,46.23
2017-11-08T11:24:12.955Z,39.27
2017-11-08T11:26:41.769Z,38.20
2017-11-08T11:29:11.702Z,36.90
2017-11-08T11:31:40.004Z,36.50
2017-11-08T11:34:07.578Z,35.47
2017-11-08T11:36:35.121Z,41.17
2017-11-08T11:39:03.641Z,41.90
2017-11-08T11:41:31.199Z,44.33
2017-11-08T11:43:59.186Z,42.93
2017-11-08T11:46:27.242Z,39.37
2017-11-08T11:48:54.768Z,42.63
2017-11-08T11:51:25.751Z,35.60
2017-11-08T11:53:53.296Z,38.60
2017-11-08T11:56:20.839Z,44.07
2017-11-08T11:58:48.440Z,39.07
2017-11-08T12:01:16.237Z,36.83
2017-11-08T12:03:43.772Z,32.30
2017-11-08T12:06:11.281Z,40.70
2017-11-08T12:08:40.176Z,36.67
2017-11-08T12:11:08.536Z,38.43
2017-11-08T12:13:36.869Z,40.80
2017-11-08T12:16:04.399Z,37.80
2017-11-08T12:18:32.214Z,40.20
2017-11-08T12:20:59.775Z,41.60
2017-11-08T12:23:27.292Z,39.70
2017-11-08T12:25:54.967Z,39.37
2017-11-08T12:31:15.623Z,39.83
2017-11-08T12:33:44.434Z,39.30
2017-11-08T12:36:12.275Z,41.43
2017-11-08T12:38:39.819Z,40.23
2017-11-08T12:41:07.361Z,41.87
2017-11-08T12:43:34.930Z,42.73
2017-11-08T12:46:02.483Z,44.53
2017-11-08T12:48:30.056Z,47.13
2017-11-08T12:50:57.630Z,49.93
2017-11-08T12:53:25.595Z,46.70
2017-11-08T12:55:53.106Z,59.67
2017-11-08T12:58:21.399Z,67.30
2017-11-08T13:00:48.943Z,59.03
2017-11-08T13:03:16.478Z,61.63
2017-11-08T13:06:04.449Z,63.93
2017-11-08T13:08:32.941Z,70.53
2017-11-08T13:11:06.480Z,65.97
2017-11-08T13:13:34.149Z,64.50
2017-11-08T13:16:02.111Z,63.50
2017-11-08T13:18:29.683Z,63.57
2017-11-08T13:20:57.202Z,61.63
2017-11-08T13:23:25.519Z,58.57
2017-11-08T13:25:53.034Z,68.60
2017-11-08T13:28:21.615Z,80.10
2017-11-08T13:30:49.902Z,73.63
2017-11-08T13:33:18.183Z,78.87
2017-11-08T13:35:46.559Z,82.17
2017-11-08T13:38:28.344Z,60.90
2017-11-08T13:40:56.088Z,63.67
2017-11-08T13:43:25.070Z,66.00
2017-11-08T13:45:52.914Z,63.17
2017-11-08T13:48:20.455Z,65.47
2017-11-08T13:51:04.621Z,67.20
2017-11-08T13:59:40.055Z,55.60
2017-11-08T14:02:08.442Z,63.03
2017-11-08T14:04:36.496Z,63.73
2017-11-08T14:07:04.058Z,58.23
2017-11-08T14:09:33.925Z,57.63
2017-11-08T14:12:01.557Z,62.80
2017-11-08T14:14:29.100Z,58.70
2017-11-08T14:16:56.779Z,68.67
2017-11-08T14:19:25.287Z,60.87
2017-11-08T14:22:01.771Z,61.07
2017-11-08T14:24:29.323Z,64.10
2017-11-08T14:26:57.417Z,57.63
2017-11-08T14:29:25.044Z,60.97
2017-11-08T14:31:53.025Z,58.00
2017-11-08T14:34:20.688Z,55.10
2017-11-08T14:36:49.975Z,63.50
2017-11-08T14:39:18.415Z,69.20
2017-11-08T14:41:52.654Z,58.90
2017-11-08T14:44:20.949Z,55.50
2017-11-08T14:46:49.363Z,62.43
2017-11-08T14:49:16.953Z,65.03
2017-11-08T14:51:46.559Z,59.23
2017-11-08T14:54:14.787Z,60.77
2017-11-08T14:56:42.459Z,59.43
2017-11-08T14:59:10.061Z,67.90
2017-11-08T15:01:37.996Z,64.13
2017-11-08T15:04:05.535Z,62.33
2017-11-08T15:06:33.901Z,63.13
2017-11-08T15:09:01.641Z,68.53
2017-11-08T15:11:32.975Z,63.57
2017-11-08T15:14:05.414Z,63.33
2017-11-08T15:16:39.613Z,68.70
2017-11-08T15:24:37.240Z,63.80
2017-11-08T15:27:20.002Z,70.97
2017-11-08T15:29:54.573Z,72.13
2017-11-08T15:35:32.682Z,71.83
2017-11-08T15:38:01.570Z,76.77
2017-11-08T15:40:29.221Z,77.77
2017-11-08T15:45:58.113Z,70.47
2017-11-08T15:51:34.540Z,75.70
2017-11-08T15:54:16.532Z,76.43
2017-11-08T15:56:51.504Z,78.50
2017-11-08T15:59:53.340Z,80.07
2017-11-08T16:02:38.288Z,75.60
2017-11-08T16:05:09.277Z,75.87
2017-11-08T16:07:37.284Z,81.67
2017-11-08T16:10:11.025Z,82.63
2017-11-08T16:18:51.428Z,83.30
2017-11-08T16:26:08.672Z,73.73
2017-11-08T16:28:38.079Z,86.30
2017-11-08T16:31:05.666Z,78.40
2017-11-08T16:33:33.197Z,87.47
2017-11-08T16:39:01.790Z,82.27
2017-11-08T16:49:55.646Z,100.57
2017-11-08T16:52:23.326Z,94.57
2017-11-08T16:54:52.737Z,97.47
2017-11-08T16:57:45.963Z,103.73
2017-11-08T17:00:13.693Z,96.40
2017-11-08T17:02:41.648Z,101.60
2017-11-08T17:05:09.221Z,103.93
2017-11-08T17:07:36.802Z,98.00
2017-11-08T17:10:04.399Z,107.90
2017-11-08T17:12:32.044Z,102.17
2017-11-08T17:14:59.800Z,106.03
2017-11-08T17:17:28.273Z,98.03
2017-11-08T17:19:56.610Z,115.30
2017-11-08T17:22:24.488Z,102.60
2017-11-08T17:24:52.306Z,113.23
2017-11-08T17:27:21.477Z,112.53
2017-11-08T17:29:49.033Z,110.00
2017-11-08T17:32:17.552Z,113.27
2017-11-08T17:34:45.138Z,108.97
2017-11-08T17:37:13.863Z,117.27
2017-11-08T17:39:41.681Z,109.00
2017-11-08T17:42:12.288Z,114.50
2017-11-08T17:44:40.673Z,112.23
2017-11-08T17:47:10.034Z,117.83
2017-11-08T17:52:18.486Z,119.97
2017-11-08T18:08:34.329Z,99.30
2017-11-08T18:11:02.966Z,98.90
2017-11-08T18:13:30.561Z,111.37
2017-11-08T18:15:58.113Z,118.63
2017-11-08T18:18:25.692Z,103.30
2017-11-08T18:20:54.052Z,112.27
2017-11-08T18:23:21.632Z,105.23
2017-11-08T18:25:49.203Z,108.83
2017-11-08T18:28:18.505Z,117.67
2017-11-08T18:58:05.117Z,99.17
2017-11-08T19:00:32.701Z,97.80
2017-11-08T19:57:22.981Z,94.63
2017-11-08T19:59:50.866Z,111.73
2017-11-08T20:02:19.341Z,118.00
2017-11-08T20:04:46.880Z,106.90
2017-11-08T20:07:14.434Z,105.13
2017-11-08T20:09:42.045Z,104.57
2017-11-08T20:12:09.934Z,103.93
2017-11-08T20:14:37.520Z,98.43
2017-11-08T20:17:05.090Z,118.97
2017-11-08T20:19:32.647Z,99.73
2017-11-08T20:22:00.231Z,107.63
2017-11-08T20:24:27.814Z,122.95
2017-11-08T20:26:55.398Z,107.43
2017-11-08T20:29:23.243Z,108.33
2017-11-08T20:31:50.822Z,112.17
2017-11-08T20:34:18.380Z,110.33
2017-11-08T20:36:45.959Z,112.03
2017-11-08T20:39:14.292Z,110.20
2017-11-08T20:41:41.961Z,115.47
2017-11-08T20:44:09.499Z,111.97
2017-11-08T20:46:37.608Z,113.03
2017-11-08T20:49:05.246Z,87.53
2017-11-08T20:51:33.124Z,112.60
2017-11-08T20:54:00.788Z,108.10
2017-11-08T20:56:28.502Z,100.43
2017-11-08T20:58:56.123Z,109.40
2017-11-08T21:01:23.728Z,110.27
2017-11-08T21:03:51.729Z,119.67
2017-11-08T21:06:19.325Z,107.87
2017-11-08T21:08:47.661Z,106.33
2017-11-08T21:11:15.250Z,118.13
2017-11-08T21:13:42.931Z,115.60
2017-11-08T21:16:10.501Z,95.73
2017-11-08T21:18:38.074Z,112.93
2017-11-08T21:21:05.982Z,120.00
2017-11-08T21:23:33.515Z,116.03
2017-11-08T21:26:01.089Z,100.30
2017-11-08T21:28:28.688Z,117.87
2017-11-08T21:30:56.244Z,114.90
2017-11-08T21:33:27.402Z,119.40
2017-11-08T21:35:54.956Z,117.17
2017-11-08T21:38:22.981Z,114.50
2017-11-08T21:40:51.359Z,113.20
2017-11-08T21:43:18.949Z,109.20
2017-11-08T21:45:46.569Z,110.63
2017-11-08T21:48:14.869Z,116.50
2017-11-08T21:50:42.511Z,112.67
2017-11-08T21:53:10.087Z,126.63
2017-11-08T21:55:37.957Z,117.90
2017-11-08T21:58:05.598Z,114.00
2017-11-08T22:00:33.144Z,117.33
2017-11-08T22:03:01.509Z,125.93
2017-11-08T22:05:29.049Z,110.63
2017-11-08T22:07:56.658Z,107.00
2017-11-08T22:10:24.993Z,107.77
2017-11-08T22:12:53.250Z,121.83
2017-11-08T22:15:21.195Z,111.90
2017-11-08T22:17:48.840Z,115.93
2017-11-08T22:20:17.649Z,116.40
2017-11-08T22:22:52.751Z,108.67
2017-11-08T22:25:21.655Z,133.87
2017-11-08T22:27:49.268Z,120.50
2017-11-08T22:30:17.431Z,115.73
2017-11-08T22:32:45.384Z,105.90
2017-11-08T22:35:13.037Z,116.80
2017-11-08T22:37:40.879Z,120.33
2017-11-08T22:40:08.667Z,124.90
2017-11-08T22:42:37.054Z,126.63
2017-11-08T22:45:05.358Z,114.07
2017-11-08T22:47:33.309Z,111.37
2017-11-08T22:50:00.960Z,119.70
2017-11-08T22:52:29.259Z,112.07
2017-11-08T22:54:57.756Z,133.67
2017-11-08T22:57:25.530Z,126.43
2017-11-08T22:59:53.129Z,128.30
2017-11-08T23:02:20.789Z,130.07
2017-11-08T23:04:49.130Z,121.00
2017-11-08T23:07:17.060Z,108.93
2017-11-08T23:09:45.584Z,132.43
2017-11-08T23:12:13.484Z,119.43
2017-11-08T23:14:41.067Z,135.67
2017-11-08T23:17:09.541Z,121.23
2017-11-08T23:19:37.985Z,132.20
2017-11-08T23:22:05.925Z,115.10
2017-11-08T23:24:34.215Z,121.70
2017-11-08T23:27:01.724Z,117.93
2017-11-08T23:29:30.052Z,115.40
2017-11-08T23:31:57.618Z,114.77
2017-11-08T23:34:25.187Z,121.47
2017-11-08T23:36:52.832Z,117.40
2017-11-08T23:39:20.723Z,126.30
2017-11-08T23:41:48.423Z,148.60
2017-11-08T23:44:16.189Z,143.53
2017-11-08T23:46:44.183Z,138.33
2017-11-08T23:49:11.818Z,128.07
2017-11-08T23:51:39.534Z,123.23
2017-11-08T23:54:07.310Z,126.40
2017-11-08T23:56:35.692Z,121.77
2017-11-08T23:59:09.259Z,121.93
